Hartford Brainard Airport
KHFD : now visible

Airfield :











YOU CAN JOIN US ON...

 
LOGIN :

Register | Disclaimer

   EN    FR    IT 

 









Legend :    VFR   Marginal VFR   IFR   Intensive IFR   Very Intensive IFR
Visi :
Ceiling :
>= 8 km
>= 3000ft
5 to 8 km
1000 to 3000 ft
1500m to 5 km
500 to 1000 ft
800 to 1500m
200 to 500 ft
< 800m
< 200 ft
Symbols :   Thunderstorms  Fog  Heavy snow  Heavy precipitations  Wind > 20 kt






- Airport Elevation : 18 ft


KHFD - Hartford Brainard

CURRENT METAR :
  • 021553Z 26006KT 10SM SCT034 OVC150 26/19 A2990 RMK AO2 RAB1457E34 SLP125 BINOVC P0000 T02610194

EXPIRED METARs :
  • 021453Z 26005KT 10SM FEW015 OVC150 26/19 A2989 RMK AO2 SLP122 BINOVC 60000 T02610194 50002
  • 020253Z 20007KT 10SM CLR 27/21 A2991 RMK AO2 SLP129 T02670211 53006
  • 021353Z 26003KT 10SM FEW012 OVC150 25/21 A2990 RMK AO2 SLP124 T02500206

TAF N/A
KZBW FIR / North America



MET'MAP, your aeronautical weather chart ! - Copyright ORBIFLY December 2007 - Disclaimer

ORBIFLY MET'MAP TEAM :

Programming & Development : Alexandra Zaïnal
Original concept : Baudouin d'Aumeries
Technical & hardware support : Manuel Goepfert
Assistance : Marc-Olivier Méhu




SOURCES & CREDITS :

   NOAA       Earth
Advisory